createdAt,value
2024-03-12T00:00:29.899Z,99400.06
2024-03-12T00:02:57.384Z,99399.97
2024-03-12T00:05:24.487Z,99404.72
2024-03-12T00:07:55.112Z,99407.00
2024-03-12T00:10:22.375Z,99398.87
2024-03-12T00:12:53.117Z,99403.12
2024-03-12T00:15:25.060Z,99410.94
2024-03-12T00:17:57.512Z,99419.22
2024-03-12T00:20:44.248Z,99426.28
2024-03-12T00:23:12.945Z,99417.00
2024-03-12T00:25:41.772Z,99424.25
2024-03-12T00:28:10.118Z,99427.09
2024-03-12T00:30:42.014Z,99429.94
2024-03-12T00:33:09.884Z,99427.81
2024-03-12T00:35:40.097Z,99434.69
2024-03-12T00:38:07.646Z,99438.34
2024-03-12T00:40:37.389Z,99436.25
2024-03-12T00:43:08.159Z,99449.81
2024-03-12T00:45:40.108Z,99446.91
2024-03-12T00:48:12.384Z,99449.72
2024-03-12T00:50:40.817Z,99447.00
2024-03-12T00:53:09.714Z,99450.09
2024-03-12T00:55:37.691Z,99445.69
2024-03-12T00:58:11.304Z,99449.59
2024-03-12T01:00:40.936Z,99449.38
2024-03-12T01:03:12.943Z,99455.84
2024-03-12T01:05:40.922Z,99451.72
2024-03-12T01:08:09.396Z,99447.25
2024-03-12T01:10:37.123Z,99456.34
2024-03-12T01:13:07.706Z,99451.16
2024-03-12T01:15:36.433Z,99457.12
2024-03-12T01:18:05.000Z,99458.78
2024-03-12T01:20:36.084Z,99462.13
2024-03-12T01:23:05.874Z,99463.41
2024-03-12T01:25:36.561Z,99465.59
2024-03-12T01:28:06.341Z,99470.78
2024-03-12T01:30:34.936Z,99466.84
2024-03-12T01:33:03.744Z,99471.47
2024-03-12T01:35:31.988Z,99467.16
2024-03-12T01:37:59.709Z,99467.41
2024-03-12T01:40:28.921Z,99467.31
2024-03-12T01:43:02.280Z,99469.47
2024-03-12T01:45:32.156Z,99463.00
2024-03-12T01:48:04.829Z,99466.22
2024-03-12T01:50:33.408Z,99463.91
2024-03-12T01:53:01.111Z,99458.97
2024-03-12T01:55:28.699Z,99464.75
2024-03-12T01:57:56.129Z,99461.34
2024-03-12T02:00:26.207Z,99465.94
2024-03-12T02:02:54.170Z,99469.50
2024-03-12T02:05:23.718Z,99461.84
2024-03-12T02:07:52.392Z,99463.88
2024-03-12T02:10:20.136Z,99472.47
2024-03-12T02:12:48.287Z,99475.13
2024-03-12T02:15:22.034Z,99482.81
2024-03-12T02:17:55.371Z,99468.56
2024-03-12T02:20:24.765Z,99473.50
2024-03-12T02:22:55.861Z,99475.28
2024-03-12T02:25:24.002Z,99481.31
2024-03-12T02:27:53.390Z,99476.59
2024-03-12T02:30:22.504Z,99485.34
2024-03-12T02:32:50.793Z,99484.84
2024-03-12T02:35:20.657Z,99487.44
2024-03-12T02:37:47.631Z,99488.59
2024-03-12T02:40:16.543Z,99489.78
2024-03-12T02:42:45.510Z,99487.88
2024-03-12T02:45:17.953Z,99489.34
2024-03-12T02:47:47.482Z,99483.91
2024-03-12T02:50:16.680Z,99486.62
2024-03-12T02:52:46.103Z,99496.69
2024-03-12T02:55:13.565Z,99497.13
2024-03-12T02:57:40.721Z,99499.59
2024-03-12T03:00:13.061Z,99496.91
2024-03-12T03:02:42.468Z,99500.88
2024-03-12T03:05:13.304Z,99503.34
2024-03-12T03:07:42.079Z,99505.87
2024-03-12T03:10:11.057Z,99514.69
2024-03-12T03:12:39.099Z,99503.72
2024-03-12T03:15:06.543Z,99506.00
2024-03-12T03:17:35.510Z,99504.69
2024-03-12T03:20:06.039Z,99510.38
2024-03-12T03:22:33.541Z,99508.53
2024-03-12T03:25:00.919Z,99505.22
2024-03-12T03:27:28.568Z,99512.13
2024-03-12T03:30:00.683Z,99521.91
2024-03-12T03:32:27.744Z,99516.06
2024-03-12T03:34:54.794Z,99521.72
2024-03-12T03:37:22.058Z,99516.94
2024-03-12T03:39:49.616Z,99518.94
2024-03-12T03:42:18.367Z,99517.91
2024-03-12T03:44:45.601Z,99527.97
2024-03-12T03:47:12.588Z,99516.78
2024-03-12T03:49:41.419Z,99521.22
2024-03-12T03:52:08.836Z,99522.09
2024-03-12T03:54:36.072Z,99532.12
2024-03-12T03:57:03.172Z,99524.25
2024-03-12T03:59:32.124Z,99529.63
2024-03-12T04:01:59.329Z,99525.62
2024-03-12T04:04:27.139Z,99527.97
2024-03-12T04:06:55.366Z,99529.81
2024-03-12T04:09:23.673Z,99535.25
2024-03-12T04:11:51.056Z,99529.44
2024-03-12T04:14:21.150Z,99525.94
2024-03-12T04:16:48.192Z,99537.63
2024-03-12T04:19:16.099Z,99534.84
2024-03-12T04:21:45.042Z,99531.94
2024-03-12T04:24:14.745Z,99540.34
2024-03-12T04:26:46.508Z,99538.16
2024-03-12T04:29:13.565Z,99534.41
2024-03-12T04:31:40.921Z,99537.13
2024-03-12T04:34:09.921Z,99544.59
2024-03-12T04:36:42.159Z,99543.69
2024-03-12T04:39:31.741Z,99538.78
2024-03-12T04:42:06.384Z,99545.63
2024-03-12T04:44:34.030Z,99552.06
2024-03-12T04:47:01.254Z,99561.63
2024-03-12T04:49:28.449Z,99566.00
2024-03-12T04:51:56.949Z,99565.38
2024-03-12T04:54:23.980Z,99572.00
2024-03-12T04:56:53.949Z,99567.47
2024-03-12T04:59:21.294Z,99566.28
2024-03-12T05:01:50.299Z,99570.06
2024-03-12T05:04:22.581Z,99574.66
2024-03-12T05:06:51.057Z,99569.97
2024-03-12T05:09:21.397Z,99576.78
2024-03-12T05:11:49.249Z,99582.72
2024-03-12T05:14:16.921Z,99582.47
2024-03-12T05:16:44.912Z,99586.84
2024-03-12T05:19:12.687Z,99587.72
2024-03-12T05:21:40.363Z,99594.59
2024-03-12T05:24:10.136Z,99598.16
2024-03-12T05:26:45.169Z,99606.03
2024-03-12T05:29:13.228Z,99596.91
2024-03-12T05:31:41.567Z,99609.53
2024-03-12T05:34:17.295Z,99611.72
2024-03-12T05:36:52.892Z,99612.37
2024-03-12T05:39:59.842Z,99609.97
2024-03-12T05:42:46.142Z,99620.44
2024-03-12T05:45:31.828Z,99618.72
2024-03-12T05:48:11.437Z,99618.41
2024-03-12T05:50:42.230Z,99622.88
2024-03-12T05:53:10.082Z,99624.62
2024-03-12T05:55:37.827Z,99628.81
2024-03-12T05:58:06.009Z,99629.09
2024-03-12T06:00:34.723Z,99630.16
2024-03-12T06:03:04.623Z,99636.41
2024-03-12T06:05:31.825Z,99635.63
2024-03-12T06:08:08.437Z,99640.38
2024-03-12T06:10:36.331Z,99643.44
2024-03-12T06:13:03.459Z,99646.31
2024-03-12T06:15:32.664Z,99639.50
2024-03-12T06:18:00.545Z,99648.31
2024-03-12T06:20:29.711Z,99656.00
2024-03-12T06:22:57.052Z,99654.22
2024-03-12T06:25:24.901Z,99654.00
2024-03-12T06:27:53.473Z,99659.72
2024-03-12T06:30:20.544Z,99651.19
2024-03-12T06:32:48.292Z,99663.47
2024-03-12T06:35:15.801Z,99667.03
2024-03-12T06:37:44.470Z,99654.22
2024-03-12T06:40:13.429Z,99658.94
2024-03-12T06:42:42.798Z,99667.94
2024-03-12T06:45:12.832Z,99664.56
2024-03-12T06:47:42.691Z,99664.22
2024-03-12T06:50:13.688Z,99659.50
2024-03-12T06:52:42.730Z,99668.75
2024-03-12T06:55:16.967Z,99670.63
2024-03-12T06:57:53.088Z,99672.44
2024-03-12T07:00:27.868Z,99672.31
2024-03-12T07:02:55.238Z,99666.37
2024-03-12T07:05:26.801Z,99659.88
2024-03-12T07:07:55.116Z,99669.44
2024-03-12T07:10:27.599Z,99673.47
2024-03-12T07:12:56.774Z,99670.16
2024-03-12T07:15:26.015Z,99675.84
2024-03-12T07:17:54.456Z,99681.87
2024-03-12T07:20:22.946Z,99686.50
2024-03-12T07:22:50.310Z,99679.44
2024-03-12T07:25:18.812Z,99680.16
2024-03-12T07:27:45.954Z,99689.72
2024-03-12T07:30:16.808Z,99694.22
2024-03-12T07:32:48.597Z,99697.47
2024-03-12T07:35:18.473Z,99692.84
2024-03-12T07:37:47.152Z,99698.78
2024-03-12T07:40:17.445Z,99696.16
2024-03-12T07:42:45.551Z,99700.12
2024-03-12T07:45:15.836Z,99694.78
2024-03-12T07:47:43.574Z,99711.06
2024-03-12T07:50:12.747Z,99707.22
2024-03-12T07:52:40.793Z,99705.81
2024-03-12T07:55:10.850Z,99705.56
2024-03-12T07:57:39.713Z,99713.88
2024-03-12T08:00:15.511Z,99694.31
2024-03-12T08:02:43.796Z,99707.75
2024-03-12T08:05:13.441Z,99701.66
2024-03-12T08:07:51.798Z,99712.78
2024-03-12T08:10:19.538Z,99713.34
2024-03-12T08:12:46.791Z,99714.62
2024-03-12T08:15:15.703Z,99719.75
2024-03-12T08:17:45.552Z,99719.16
2024-03-12T08:20:18.482Z,99722.97
2024-03-12T08:22:48.635Z,99730.28
2024-03-12T08:25:21.393Z,99725.84
2024-03-12T08:27:50.005Z,99730.94
2024-03-12T08:30:19.744Z,99731.91
2024-03-12T08:32:46.928Z,99735.44
2024-03-12T08:35:14.748Z,99729.13
2024-03-12T08:37:43.215Z,99731.28
2024-03-12T08:40:15.507Z,99737.78
2024-03-12T08:42:50.583Z,99740.09
2024-03-12T08:45:25.070Z,99744.09
2024-03-12T08:47:52.631Z,99742.03
2024-03-12T08:50:23.209Z,99749.59
2024-03-12T08:52:51.826Z,99749.66
2024-03-12T08:55:19.693Z,99745.62
2024-03-12T08:57:48.076Z,99753.22
2024-03-12T09:00:15.658Z,99759.50
2024-03-12T09:02:43.493Z,99762.94
2024-03-12T09:05:11.022Z,99759.50
2024-03-12T09:07:38.489Z,99767.09
2024-03-12T09:10:13.808Z,99769.78
2024-03-12T09:12:44.325Z,99768.81
2024-03-12T09:15:11.843Z,99770.47
2024-03-12T09:17:39.724Z,99769.88
2024-03-12T09:20:10.987Z,99767.47
2024-03-12T09:22:38.847Z,99776.12
2024-03-12T09:25:07.214Z,99776.69
2024-03-12T09:27:35.040Z,99781.56
2024-03-12T09:30:04.520Z,99782.44
2024-03-12T09:32:31.721Z,99784.91
2024-03-12T09:34:59.442Z,99784.66
2024-03-12T09:37:28.354Z,99775.84
2024-03-12T09:39:56.019Z,99783.28
2024-03-12T09:42:26.053Z,99786.38
2024-03-12T09:44:54.162Z,99791.59
2024-03-12T09:47:21.790Z,99795.37
2024-03-12T09:49:50.179Z,99798.47
2024-03-12T09:52:18.562Z,99800.50
2024-03-12T09:54:46.277Z,99794.19
2024-03-12T09:57:14.384Z,99806.03
2024-03-12T09:59:44.746Z,99802.63
2024-03-12T10:02:16.058Z,99805.19
2024-03-12T10:04:43.712Z,99803.41
2024-03-12T10:07:13.297Z,99802.37
2024-03-12T10:09:40.514Z,99811.72
2024-03-12T10:12:10.142Z,99806.50
2024-03-12T10:14:38.776Z,99806.84
2024-03-12T10:17:15.558Z,99800.59
2024-03-12T10:19:44.411Z,99807.59
2024-03-12T10:22:18.379Z,99804.78
2024-03-12T10:24:48.161Z,99814.25
2024-03-12T10:27:16.952Z,99809.78
2024-03-12T10:29:44.084Z,99806.81
2024-03-12T10:32:22.560Z,99800.12
2024-03-12T10:34:51.032Z,99810.69
2024-03-12T10:37:36.424Z,99813.34
2024-03-12T10:40:23.315Z,99811.19
2024-03-12T10:42:55.760Z,99816.38
2024-03-12T10:45:23.188Z,99822.22
2024-03-12T10:47:50.858Z,99816.63
2024-03-12T10:50:18.301Z,99819.94
2024-03-12T10:52:46.473Z,99819.22
2024-03-12T10:55:22.260Z,99825.37
2024-03-12T10:57:51.050Z,99812.03
2024-03-12T11:00:21.995Z,99822.16
2024-03-12T11:03:03.437Z,99824.03
2024-03-12T11:05:31.181Z,99824.44
2024-03-12T11:07:59.303Z,99826.84
2024-03-12T11:10:29.373Z,99829.41
2024-03-12T11:13:02.144Z,99828.31
2024-03-12T11:15:29.915Z,99825.97
2024-03-12T11:17:57.363Z,99825.66
2024-03-12T11:20:28.217Z,99828.25
2024-03-12T11:23:01.353Z,99822.09
2024-03-12T11:25:39.421Z,99818.13
2024-03-12T11:28:23.595Z,99819.13
2024-03-12T11:31:06.121Z,99822.03
2024-03-12T11:33:57.708Z,99826.69
2024-03-12T11:36:25.193Z,99829.41
2024-03-12T11:38:53.165Z,99826.88
2024-03-12T11:41:20.874Z,99821.78
2024-03-12T11:43:48.906Z,99821.28
2024-03-12T11:46:18.548Z,99827.00
2024-03-12T11:48:47.202Z,99833.72
2024-03-12T11:51:15.889Z,99824.75
2024-03-12T11:53:46.194Z,99822.09
2024-03-12T11:56:19.859Z,99828.75
2024-03-12T11:58:57.547Z,99821.88
2024-03-12T12:01:33.216Z,99817.28
2024-03-12T12:04:02.804Z,99823.25
2024-03-12T12:06:34.859Z,99826.13
2024-03-12T12:09:06.580Z,99827.41
2024-03-12T12:11:37.773Z,99828.13
2024-03-12T12:14:09.967Z,99834.56
2024-03-12T12:16:39.399Z,99828.28
2024-03-12T12:19:13.479Z,99839.47
2024-03-12T12:21:44.199Z,99836.78
2024-03-12T12:24:12.382Z,99837.69
2024-03-12T12:26:40.046Z,99838.72
2024-03-12T12:29:13.680Z,99830.69
2024-03-12T12:31:43.056Z,99834.50
2024-03-12T12:34:11.732Z,99835.75
2024-03-12T12:36:44.187Z,99835.31
2024-03-12T12:39:13.298Z,99835.81
2024-03-12T12:41:47.005Z,99838.03
2024-03-12T12:44:18.993Z,99840.84
2024-03-12T12:46:47.520Z,99844.97
2024-03-12T12:49:18.646Z,99844.84
2024-03-12T12:51:47.125Z,99844.53
2024-03-12T12:54:19.864Z,99845.56
2024-03-12T12:56:47.934Z,99854.22
2024-03-12T12:59:18.066Z,99849.34
2024-03-12T13:01:48.394Z,99851.00
2024-03-12T13:04:28.024Z,99850.91
2024-03-12T13:06:58.104Z,99849.75
2024-03-12T13:09:34.312Z,99839.06
2024-03-12T13:12:03.307Z,99843.53
2024-03-12T13:14:31.006Z,99845.38
2024-03-12T13:17:00.656Z,99843.50
2024-03-12T13:19:29.123Z,99846.16
2024-03-12T13:21:59.053Z,99846.22
2024-03-12T13:24:30.449Z,99838.78
2024-03-12T13:26:59.563Z,99845.66
2024-03-12T13:29:27.393Z,99846.72
2024-03-12T13:32:00.760Z,99850.59
2024-03-12T13:34:46.120Z,99851.44
2024-03-12T13:37:14.491Z,99845.47
2024-03-12T13:39:43.367Z,99849.84
2024-03-12T13:42:11.422Z,99850.09
2024-03-12T13:44:38.517Z,99855.44
2024-03-12T13:47:06.624Z,99858.03
2024-03-12T13:49:34.146Z,99851.78
2024-03-12T13:52:02.371Z,99856.16
2024-03-12T13:54:29.704Z,99848.63
2024-03-12T13:56:59.664Z,99847.78
2024-03-12T13:59:27.396Z,99849.25
2024-03-12T14:01:55.040Z,99857.31
2024-03-12T14:04:24.503Z,99853.22
2024-03-12T14:06:52.448Z,99859.28
2024-03-12T14:09:19.629Z,99852.53
2024-03-12T14:11:47.738Z,99852.84
2024-03-12T14:14:16.055Z,99850.03
2024-03-12T14:16:44.862Z,99854.31
2024-03-12T14:19:12.788Z,99855.34
2024-03-12T14:21:40.634Z,99857.22
2024-03-12T14:24:07.860Z,99856.78
2024-03-12T14:26:35.719Z,99863.69
2024-03-12T14:29:02.755Z,99857.78
2024-03-12T14:31:30.040Z,99865.50
2024-03-12T14:33:59.004Z,99854.91
2024-03-12T14:36:26.091Z,99858.78
2024-03-12T14:38:57.213Z,99855.75
2024-03-12T14:41:27.344Z,99857.47
2024-03-12T14:43:54.867Z,99853.50
2024-03-12T14:46:21.909Z,99853.50
2024-03-12T14:48:53.519Z,99850.56
2024-03-12T14:51:20.702Z,99850.56
2024-03-12T14:53:47.964Z,99846.09
2024-03-12T14:56:15.272Z,99855.56
2024-03-12T14:58:43.049Z,99864.87
2024-03-12T15:01:12.236Z,99863.22
2024-03-12T15:03:40.833Z,99868.00
2024-03-12T15:06:10.330Z,99864.22
2024-03-12T15:08:38.372Z,99871.91
2024-03-12T15:11:05.750Z,99866.53
2024-03-12T15:13:34.834Z,99872.03
2024-03-12T15:16:02.089Z,99867.56
2024-03-12T15:18:31.029Z,99873.38
2024-03-12T15:20:59.030Z,99872.53
2024-03-12T15:23:26.132Z,99869.47
2024-03-12T15:25:54.480Z,99868.62
2024-03-12T15:28:21.527Z,99873.84
2024-03-12T15:30:49.429Z,99879.25
2024-03-12T15:33:17.238Z,99877.88
2024-03-12T15:35:44.356Z,99880.28
2024-03-12T15:38:11.386Z,99873.41
2024-03-12T15:40:38.615Z,99880.91
2024-03-12T15:43:06.708Z,99878.41
2024-03-12T15:45:33.960Z,99876.91
2024-03-12T15:48:01.517Z,99877.38
2024-03-12T15:50:28.641Z,99873.16
2024-03-12T15:52:55.765Z,99874.62
2024-03-12T15:55:26.102Z,99870.38
2024-03-12T15:57:55.030Z,99879.16
2024-03-12T16:00:23.593Z,99873.75
2024-03-12T16:02:55.440Z,99883.00
2024-03-12T16:05:25.112Z,99879.56
2024-03-12T16:07:53.852Z,99883.94
2024-03-12T16:10:25.278Z,99884.25
2024-03-12T16:12:53.233Z,99887.63
2024-03-12T16:15:20.398Z,99892.41
2024-03-12T16:17:48.211Z,99893.41
2024-03-12T16:20:20.186Z,99889.47
2024-03-12T16:22:47.783Z,99893.75
2024-03-12T16:25:15.361Z,99894.47
2024-03-12T16:27:46.489Z,99902.53
2024-03-12T16:30:15.702Z,99901.78
2024-03-12T16:32:45.049Z,99909.56
2024-03-12T16:35:13.755Z,99908.22
2024-03-12T16:37:44.868Z,99911.56
2024-03-12T16:40:12.994Z,99904.06
2024-03-12T16:42:43.604Z,99904.59
2024-03-12T16:45:10.948Z,99903.41
2024-03-12T16:47:38.256Z,99896.97
2024-03-12T16:50:09.435Z,99906.56
2024-03-12T16:52:47.318Z,99906.66
2024-03-12T16:55:15.323Z,99911.56
2024-03-12T16:57:44.423Z,99909.69
2024-03-12T17:00:14.941Z,99911.97
2024-03-12T17:02:45.788Z,99909.91
2024-03-12T17:05:17.422Z,99912.81
2024-03-12T17:07:50.684Z,99905.72
2024-03-12T17:10:19.197Z,99902.59
2024-03-12T17:12:48.053Z,99919.47
2024-03-12T17:15:16.893Z,99915.28
2024-03-12T17:17:44.377Z,99907.69
2024-03-12T17:20:12.001Z,99918.63
2024-03-12T17:22:40.559Z,99922.88
2024-03-12T17:25:11.418Z,99924.31
2024-03-12T17:27:42.389Z,99922.00
2024-03-12T17:30:11.843Z,99927.06
2024-03-12T17:32:59.195Z,99923.41
2024-03-12T17:35:28.207Z,99923.28
2024-03-12T17:37:59.349Z,99924.19
2024-03-12T17:40:28.704Z,99922.31
2024-03-12T17:42:56.284Z,99930.81
2024-03-12T17:45:25.027Z,99928.22
2024-03-12T17:47:53.437Z,99934.75
2024-03-12T17:50:25.998Z,99935.03
2024-03-12T17:52:54.906Z,99933.13
2024-03-12T17:55:22.661Z,99941.66
2024-03-12T17:57:52.314Z,99943.13
2024-03-12T18:00:20.045Z,99946.47
2024-03-12T18:02:49.425Z,99947.69
2024-03-12T18:05:18.396Z,99944.16
2024-03-12T18:07:49.326Z,99951.88
2024-03-12T18:10:20.408Z,99956.03
2024-03-12T18:12:48.394Z,99957.50
2024-03-12T18:15:18.212Z,99962.63
2024-03-12T18:17:46.784Z,99954.09
2024-03-12T18:20:34.646Z,99960.66
2024-03-12T18:23:01.914Z,99967.62
2024-03-12T18:25:31.381Z,99969.66
2024-03-12T18:27:59.083Z,99970.94
2024-03-12T18:30:29.069Z,99968.44
2024-03-12T18:32:56.226Z,99970.59
2024-03-12T18:35:23.798Z,99972.56
2024-03-12T18:37:53.634Z,99967.44
2024-03-12T18:40:25.071Z,99983.00
2024-03-12T18:42:52.616Z,99976.63
2024-03-12T18:45:23.911Z,99993.78
2024-03-12T18:47:52.086Z,99983.22
2024-03-12T18:50:21.083Z,99983.22
2024-03-12T18:52:48.566Z,99983.38
2024-03-12T18:55:18.184Z,99978.75
2024-03-12T18:57:46.675Z,99985.44
2024-03-12T19:00:21.296Z,99980.31
2024-03-12T19:03:05.426Z,99991.84
2024-03-12T19:05:35.271Z,100000.47
2024-03-12T19:08:03.473Z,99985.16
2024-03-12T19:10:31.148Z,99989.16
2024-03-12T19:13:01.235Z,99983.22
2024-03-12T19:15:38.093Z,99983.03
2024-03-12T19:18:14.572Z,99982.47
2024-03-12T19:20:42.782Z,99976.16
2024-03-12T19:23:10.913Z,99980.53
2024-03-12T19:25:38.402Z,99978.75
2024-03-12T19:28:06.111Z,99983.97
2024-03-12T19:30:34.381Z,99980.63
2024-03-12T19:33:04.115Z,99978.97
2024-03-12T19:35:32.319Z,99981.72
2024-03-12T19:37:59.595Z,99979.97
2024-03-12T19:40:27.554Z,99975.44
2024-03-12T19:42:56.291Z,99982.47
2024-03-12T19:45:27.386Z,99973.56
2024-03-12T19:47:57.382Z,99978.75
2024-03-12T19:50:28.144Z,99977.94
2024-03-12T19:52:57.750Z,99978.87
2024-03-12T19:55:26.118Z,99991.84
2024-03-12T19:57:57.492Z,99982.47
2024-03-12T20:00:44.403Z,99985.81
2024-03-12T20:03:13.834Z,99991.84
2024-03-12T20:05:41.693Z,99990.81
2024-03-12T20:08:10.526Z,99994.34
2024-03-12T20:10:38.325Z,99992.09
2024-03-12T20:13:06.707Z,99990.34
2024-03-12T20:15:34.262Z,99989.34
2024-03-12T20:18:02.072Z,99986.91
2024-03-12T20:20:29.929Z,99979.34
2024-03-12T20:22:59.600Z,99995.28
2024-03-12T20:25:27.401Z,99985.06
2024-03-12T20:27:55.482Z,99982.47
2024-03-12T20:30:29.057Z,99983.41
2024-03-12T20:33:00.050Z,99975.88
2024-03-12T20:35:30.919Z,99979.13
2024-03-12T20:37:58.755Z,99976.34
2024-03-12T20:40:28.713Z,99987.09
2024-03-12T20:42:59.690Z,99983.19
2024-03-12T20:45:27.321Z,99987.16
2024-03-12T20:47:55.345Z,99987.38
2024-03-12T20:50:22.573Z,99979.94
2024-03-12T20:52:51.080Z,99985.97
2024-03-12T20:55:19.398Z,99979.16
2024-03-12T20:57:48.944Z,99975.38
2024-03-12T21:00:19.301Z,99975.63
2024-03-12T21:02:52.559Z,99978.22
2024-03-12T21:05:19.986Z,99972.19
2024-03-12T21:07:47.477Z,99975.25
2024-03-12T21:10:15.995Z,99979.59
2024-03-12T21:12:43.918Z,99982.38
2024-03-12T21:15:16.998Z,99977.84
2024-03-12T21:17:45.648Z,99981.25
2024-03-12T21:20:23.026Z,99981.44
2024-03-12T21:22:50.760Z,99986.72
2024-03-12T21:25:19.002Z,99986.78
2024-03-12T21:27:46.538Z,99985.13
2024-03-12T21:30:17.392Z,99994.91
2024-03-12T21:32:48.614Z,99998.34
2024-03-12T21:35:16.710Z,99993.94
2024-03-12T21:37:43.796Z,99993.94
2024-03-12T21:40:14.189Z,100008.56
2024-03-12T21:42:44.675Z,99997.25
2024-03-12T21:45:12.372Z,99993.09
2024-03-12T21:47:41.332Z,100008.38
2024-03-12T21:50:15.718Z,100004.94
2024-03-12T21:52:44.001Z,100008.47
2024-03-12T21:55:12.125Z,100002.44
2024-03-12T21:57:40.777Z,100009.38
2024-03-12T22:00:24.918Z,100010.22
2024-03-12T22:02:52.296Z,100010.97
2024-03-12T22:05:21.192Z,100012.47
2024-03-12T22:07:50.482Z,100016.91
2024-03-12T22:10:18.143Z,100023.56
2024-03-12T22:12:45.210Z,100019.06
2024-03-12T22:15:13.267Z,100019.72
2024-03-12T22:17:43.462Z,100030.75
2024-03-12T22:20:19.198Z,100032.66
2024-03-12T22:22:50.329Z,100031.00
2024-03-12T22:25:19.227Z,100033.69
2024-03-12T22:27:47.264Z,100037.03
2024-03-12T22:30:17.248Z,100038.53
2024-03-12T22:32:45.577Z,100037.47
2024-03-12T22:35:13.083Z,100042.16
2024-03-12T22:37:43.378Z,100038.25
2024-03-12T22:40:13.366Z,100047.34
2024-03-12T22:42:41.037Z,100042.91
2024-03-12T22:45:10.094Z,100041.16
2024-03-12T22:47:40.093Z,100032.12
2024-03-12T22:50:09.006Z,100036.87
2024-03-12T22:52:36.813Z,100042.16
2024-03-12T22:55:04.330Z,100030.87
2024-03-12T22:57:36.215Z,100036.38
2024-03-12T23:00:11.387Z,100035.22
2024-03-12T23:02:42.161Z,100035.50
2024-03-12T23:05:09.767Z,100037.50
2024-03-12T23:07:36.832Z,100026.94
2024-03-12T23:10:04.552Z,100035.16
2024-03-12T23:12:31.611Z,100036.66
2024-03-12T23:14:58.586Z,100036.72
2024-03-12T23:17:26.555Z,100031.56
2024-03-12T23:19:54.735Z,100035.00
2024-03-12T23:22:21.902Z,100025.62
2024-03-12T23:24:50.543Z,100042.09
2024-03-12T23:27:17.594Z,100030.91
2024-03-12T23:29:45.060Z,100032.66
2024-03-12T23:32:16.144Z,100032.81
2024-03-12T23:34:43.149Z,100035.41
2024-03-12T23:37:10.285Z,100039.00
2024-03-12T23:39:38.431Z,100041.69
2024-03-12T23:42:06.042Z,100030.00
2024-03-12T23:44:36.150Z,100039.59
2024-03-12T23:47:05.072Z,100033.69
2024-03-12T23:49:33.727Z,100038.84
2024-03-12T23:52:00.965Z,100035.53
2024-03-12T23:54:30.722Z,100039.03
2024-03-12T23:56:58.767Z,100032.16
2024-03-12T23:59:25.753Z,100032.84
